Nimbus Weather Services

Informe meteorológico para Carrasco, Uruguay. El informe se hizo hace 36 minutos, a las 18:00 UTC. El viento soplaba a una velocidad de 5.7 m/s (12.7 millas por hora) del sureste (130°). La temperatura era 15 °C (59 °F), con un punto de rocío de 10 °C (50 °F). La presión atmosférica era 1024 hPa (30.24 inHg). Había una humedad relativa del 72.0%. Cielo: nubosidad discontinua a una altitud de 1219 metros (4000 pies). Cielo nublado a partir de los 6096 metros (20000 pies) En aquel momento la visibilidad global era mayor de 10 kilómetros (6.2 millas).

La clave METAR es: SUMU 221800Z 13011KT 9999 BKN040 OVC200 15/10 Q1024 NOSIG

Consulta realizada el Miércoles 22 de Septiembre de 2021 15:36. Tiempo usado para generar esta pagina:8,993 ms.